createdAt,value
2023-05-08T00:00:22.151Z,0.00
2023-05-08T00:01:22.171Z,0.00
2023-05-08T00:02:22.177Z,0.00
2023-05-08T00:03:22.166Z,0.00
2023-05-08T00:04:22.146Z,0.00
2023-05-08T00:05:22.121Z,0.00
2023-05-08T00:06:22.088Z,0.00
2023-05-08T00:07:22.098Z,0.00
2023-05-08T00:08:22.073Z,0.00
2023-05-08T00:09:22.070Z,0.00
2023-05-08T00:10:22.065Z,0.00
2023-05-08T00:11:22.037Z,0.00
2023-05-08T00:12:22.033Z,0.00
2023-05-08T00:13:22.172Z,0.00
2023-05-08T00:14:22.011Z,0.00
2023-05-08T00:15:22.007Z,0.00
2023-05-08T00:16:22.041Z,0.00
2023-05-08T00:17:21.983Z,0.00
2023-05-08T00:18:22.001Z,0.00
2023-05-08T00:19:21.965Z,0.00
2023-05-08T00:20:21.934Z,0.00
2023-05-08T00:21:21.921Z,0.00
2023-05-08T00:22:21.911Z,0.00
2023-05-08T00:23:21.905Z,0.00
2023-05-08T00:24:21.908Z,0.00
2023-05-08T00:25:21.898Z,0.00
2023-05-08T00:26:21.887Z,0.00
2023-05-08T00:27:21.873Z,0.00
2023-05-08T00:28:21.847Z,0.00
2023-05-08T00:29:21.846Z,0.00
2023-05-08T00:30:21.835Z,0.00
2023-05-08T00:31:21.821Z,0.00
2023-05-08T00:32:21.965Z,0.00
2023-05-08T00:33:21.810Z,0.00
2023-05-08T00:34:21.806Z,0.00
2023-05-08T00:35:21.784Z,0.00
2023-05-08T00:36:21.761Z,0.00
2023-05-08T00:37:21.748Z,0.00
2023-05-08T00:38:21.751Z,0.00
2023-05-08T00:39:21.745Z,0.00
2023-05-08T00:40:21.728Z,0.00
2023-05-08T00:41:21.703Z,0.00
2023-05-08T00:42:29.205Z,0.00
2023-05-08T00:43:21.693Z,0.00
2023-05-08T00:44:21.688Z,0.00
2023-05-08T00:45:21.661Z,0.00
2023-05-08T00:46:21.730Z,0.00
2023-05-08T00:47:21.718Z,0.00
2023-05-08T00:48:21.621Z,0.00
2023-05-08T00:49:21.615Z,0.00
2023-05-08T00:50:21.637Z,0.00
2023-05-08T00:51:21.595Z,0.00
2023-05-08T00:52:21.579Z,0.00
2023-05-08T00:53:21.571Z,0.00
2023-05-08T00:54:21.569Z,0.00
2023-05-08T00:55:21.549Z,0.00
2023-05-08T00:56:21.569Z,0.00
2023-05-08T00:57:21.533Z,0.00
2023-05-08T00:58:21.510Z,0.00
2023-05-08T00:59:21.515Z,0.00
2023-05-08T01:00:21.500Z,0.00
2023-05-08T01:01:21.495Z,0.00
2023-05-08T01:02:21.490Z,0.00
2023-05-08T01:03:21.570Z,0.00
2023-05-08T01:04:21.490Z,0.00
2023-05-08T01:05:21.450Z,0.00
2023-05-08T01:06:21.451Z,0.00
2023-05-08T01:07:21.449Z,0.00
2023-05-08T01:08:21.409Z,0.00
2023-05-08T01:09:21.400Z,0.00
2023-05-08T01:10:21.383Z,0.00
2023-05-08T01:11:21.396Z,0.00
2023-05-08T01:12:21.372Z,0.00
2023-05-08T01:13:21.467Z,0.00
2023-05-08T01:14:21.363Z,0.00
2023-05-08T01:15:21.349Z,0.00
2023-05-08T01:16:21.361Z,0.00
2023-05-08T01:17:21.350Z,0.00
2023-05-08T01:18:21.298Z,0.00
2023-05-08T01:19:21.385Z,0.00
2023-05-08T01:20:21.283Z,0.00
2023-05-08T01:21:21.285Z,0.00
2023-05-08T01:22:21.289Z,0.00
2023-05-08T01:23:21.243Z,0.00
2023-05-08T01:24:21.248Z,0.00
2023-05-08T01:25:21.223Z,0.00
2023-05-08T01:26:21.207Z,0.00
2023-05-08T01:27:21.225Z,0.00
2023-05-08T01:28:21.203Z,0.00
2023-05-08T01:29:21.187Z,0.00
2023-05-08T01:30:21.186Z,0.00
2023-05-08T01:31:21.191Z,0.00
2023-05-08T01:32:21.214Z,0.00
2023-05-08T01:33:21.190Z,0.00
2023-05-08T01:34:21.135Z,0.00
2023-05-08T01:35:21.104Z,0.00
2023-05-08T01:36:21.118Z,0.00
2023-05-08T01:37:21.091Z,0.00
2023-05-08T01:38:21.103Z,0.00
2023-05-08T01:39:21.072Z,0.00
2023-05-08T01:40:21.069Z,0.00
2023-05-08T01:41:21.054Z,0.00
2023-05-08T01:42:21.040Z,0.00
2023-05-08T01:43:21.027Z,0.00
2023-05-08T01:44:21.037Z,0.00
2023-05-08T01:45:21.004Z,0.00
2023-05-08T01:46:21.066Z,0.00
2023-05-08T01:47:20.985Z,0.00
2023-05-08T01:48:20.968Z,0.00
2023-05-08T01:49:20.960Z,0.00
2023-05-08T01:50:20.960Z,0.00
2023-05-08T01:51:20.948Z,0.00
2023-05-08T01:52:20.940Z,0.00
2023-05-08T01:53:20.932Z,0.00
2023-05-08T01:54:20.931Z,0.00
2023-05-08T01:55:20.901Z,0.00
2023-05-08T01:56:20.909Z,0.00
2023-05-08T01:57:20.880Z,0.00
2023-05-08T01:58:20.879Z,0.00
2023-05-08T01:59:20.878Z,0.00
2023-05-08T02:00:20.856Z,0.00
2023-05-08T02:01:20.905Z,0.00
2023-05-08T02:02:20.903Z,0.00
2023-05-08T02:03:20.869Z,0.00
2023-05-08T02:04:20.862Z,0.00
2023-05-08T02:05:20.781Z,0.00
2023-05-08T02:06:20.772Z,0.00
2023-05-08T02:07:20.777Z,0.00
2023-05-08T02:08:20.766Z,0.00
2023-05-08T02:09:20.735Z,0.00
2023-05-08T02:10:20.791Z,0.00
2023-05-08T02:11:20.720Z,0.00
2023-05-08T02:12:20.703Z,0.00
2023-05-08T02:13:20.815Z,0.00
2023-05-08T02:14:20.680Z,0.00
2023-05-08T02:15:20.688Z,0.00
2023-05-08T02:16:20.730Z,0.00
2023-05-08T02:17:20.694Z,0.00
2023-05-08T02:18:20.685Z,0.00
2023-05-08T02:19:20.643Z,0.00
2023-05-08T02:20:20.656Z,0.00
2023-05-08T02:21:20.629Z,0.00
2023-05-08T02:22:20.596Z,0.00
2023-05-08T02:23:20.600Z,0.00
2023-05-08T02:24:20.573Z,0.00
2023-05-08T02:25:20.557Z,0.00
2023-05-08T02:26:20.589Z,0.00
2023-05-08T02:27:20.548Z,0.00
2023-05-08T02:28:20.537Z,0.00
2023-05-08T02:29:20.512Z,0.00
2023-05-08T02:30:20.536Z,0.00
2023-05-08T02:31:20.530Z,0.00
2023-05-08T02:32:20.583Z,0.00
2023-05-08T02:33:20.487Z,0.00
2023-05-08T02:34:20.467Z,0.00
2023-05-08T02:35:20.476Z,0.00
2023-05-08T02:36:20.446Z,0.00
2023-05-08T02:37:20.428Z,0.00
2023-05-08T02:38:20.426Z,0.00
2023-05-08T02:39:20.437Z,0.00
2023-05-08T02:40:20.401Z,0.00
2023-05-08T02:41:20.388Z,0.00
2023-05-08T02:42:20.404Z,0.00
2023-05-08T02:43:27.867Z,0.00
2023-05-08T02:44:20.354Z,0.00
2023-05-08T02:45:20.351Z,0.00
2023-05-08T02:46:20.372Z,0.00
2023-05-08T02:47:20.381Z,0.00
2023-05-08T02:48:20.311Z,0.00
2023-05-08T02:49:20.304Z,0.00
2023-05-08T02:50:20.302Z,0.00
2023-05-08T02:51:20.287Z,0.00
2023-05-08T02:52:20.270Z,0.00
2023-05-08T02:53:20.252Z,0.00
2023-05-08T02:54:20.244Z,0.00
2023-05-08T02:55:20.229Z,0.00
2023-05-08T02:56:20.245Z,0.00
2023-05-08T02:57:20.225Z,0.00
2023-05-08T02:58:20.222Z,0.00
2023-05-08T02:59:20.190Z,0.00
2023-05-08T03:00:20.179Z,0.00
2023-05-08T03:01:20.184Z,0.00
2023-05-08T03:02:20.204Z,0.00
2023-05-08T03:03:20.239Z,0.00
2023-05-08T03:04:20.134Z,0.00
2023-05-08T03:05:20.131Z,0.00
2023-05-08T03:06:20.108Z,0.00
2023-05-08T03:07:20.094Z,4.00
2023-05-08T03:08:20.097Z,0.00
2023-05-08T03:09:20.075Z,0.00
2023-05-08T03:10:20.093Z,0.00
2023-05-08T03:11:20.056Z,4.00
2023-05-08T03:12:20.064Z,4.00
2023-05-08T03:13:20.139Z,0.00
2023-05-08T03:14:20.046Z,4.00
2023-05-08T03:15:20.043Z,4.00
2023-05-08T03:16:20.047Z,4.00
2023-05-08T03:17:20.017Z,4.00
2023-05-08T03:18:19.984Z,4.00
2023-05-08T03:19:21.793Z,8.00
2023-05-08T03:20:19.968Z,8.00
2023-05-08T03:21:19.953Z,8.00
2023-05-08T03:22:19.942Z,8.00
2023-05-08T03:23:19.930Z,12.00
2023-05-08T03:24:19.912Z,12.00
2023-05-08T03:25:19.918Z,12.00
2023-05-08T03:26:19.902Z,16.00
2023-05-08T03:27:19.884Z,16.00
2023-05-08T03:28:19.870Z,16.00
2023-05-08T03:29:19.891Z,20.00
2023-05-08T03:30:19.875Z,24.00
2023-05-08T03:31:19.880Z,28.00
2023-05-08T03:32:19.827Z,32.00
2023-05-08T03:33:19.830Z,36.00
2023-05-08T03:34:19.821Z,40.00
2023-05-08T03:35:19.792Z,44.00
2023-05-08T03:36:19.786Z,52.00
2023-05-08T03:37:19.792Z,60.00
2023-05-08T03:38:19.760Z,72.00
2023-05-08T03:39:19.765Z,80.00
2023-05-08T03:40:19.756Z,88.00
2023-05-08T03:41:19.735Z,100.00
2023-05-08T03:42:19.725Z,112.00
2023-05-08T03:43:19.710Z,120.00
2023-05-08T03:44:19.701Z,132.00
2023-05-08T03:45:19.682Z,144.00
2023-05-08T03:46:19.757Z,160.00
2023-05-08T03:47:19.666Z,176.00
2023-05-08T03:48:19.685Z,192.00
2023-05-08T03:49:19.644Z,204.00
2023-05-08T03:50:19.648Z,224.00
2023-05-08T03:51:19.617Z,236.00
2023-05-08T03:52:19.610Z,256.00
2023-05-08T03:53:19.606Z,272.00
2023-05-08T03:54:19.584Z,284.00
2023-05-08T03:55:19.587Z,296.00
2023-05-08T03:56:19.564Z,312.00
2023-05-08T03:57:19.567Z,328.00
2023-05-08T03:58:19.558Z,344.00
2023-05-08T03:59:19.541Z,356.00
2023-05-08T04:00:19.538Z,368.00
2023-05-08T04:01:19.513Z,384.00
2023-05-08T04:02:19.705Z,396.00
2023-05-08T04:03:19.594Z,404.00
2023-05-08T04:04:19.564Z,412.00
2023-05-08T04:05:19.482Z,424.00
2023-05-08T04:06:19.461Z,444.00
2023-05-08T04:07:19.453Z,464.00
2023-05-08T04:08:19.454Z,492.00
2023-05-08T04:09:19.421Z,512.00
2023-05-08T04:10:19.421Z,540.00
2023-05-08T04:11:19.433Z,572.00
2023-05-08T04:12:19.399Z,600.00
2023-05-08T04:13:19.412Z,632.00
2023-05-08T04:14:19.389Z,664.00
2023-05-08T04:15:19.359Z,700.00
2023-05-08T04:16:19.486Z,732.00
2023-05-08T04:17:19.385Z,764.00
2023-05-08T04:18:19.357Z,804.00
2023-05-08T04:19:19.316Z,848.00
2023-05-08T04:20:19.316Z,888.00
2023-05-08T04:21:19.306Z,932.00
2023-05-08T04:22:19.287Z,976.00
2023-05-08T04:23:19.276Z,1024.00
2023-05-08T04:24:19.273Z,1068.00
2023-05-08T04:25:19.266Z,1112.00
2023-05-08T04:26:19.248Z,1168.00
2023-05-08T04:27:19.229Z,1220.00
2023-05-08T04:28:19.224Z,1264.00
2023-05-08T04:29:19.215Z,1284.00
2023-05-08T04:30:19.214Z,1292.00
2023-05-08T04:31:19.235Z,1296.00
2023-05-08T04:32:19.231Z,1316.00
2023-05-08T04:33:19.329Z,1352.00
2023-05-08T04:34:19.303Z,1392.00
2023-05-08T04:35:19.144Z,1440.00
2023-05-08T04:36:19.145Z,1480.00
2023-05-08T04:37:19.128Z,1492.00
2023-05-08T04:38:19.126Z,1516.00
2023-05-08T04:39:19.100Z,1552.00
2023-05-08T04:40:19.124Z,1596.00
2023-05-08T04:41:19.088Z,1644.00
2023-05-08T04:42:19.083Z,1696.00
2023-05-08T04:43:19.060Z,1752.00
2023-05-08T04:44:26.561Z,1812.00
2023-05-08T04:45:19.033Z,1876.00
2023-05-08T04:46:19.122Z,1928.00
2023-05-08T04:47:19.094Z,1976.00
2023-05-08T04:48:19.019Z,2020.00
2023-05-08T04:49:18.988Z,2056.00
2023-05-08T04:50:19.007Z,2100.00
2023-05-08T04:51:19.002Z,2140.00
2023-05-08T04:52:18.984Z,2180.00
2023-05-08T04:53:18.956Z,2224.00
2023-05-08T04:54:18.937Z,2268.00
2023-05-08T04:55:18.921Z,2324.00
2023-05-08T04:56:18.917Z,2368.00
2023-05-08T04:57:18.905Z,2404.00
2023-05-08T04:58:18.926Z,2432.00
2023-05-08T04:59:18.879Z,2460.00
2023-05-08T05:00:18.876Z,2552.00
2023-05-08T05:01:18.910Z,2700.00
2023-05-08T05:02:18.893Z,2856.00
2023-05-08T05:03:18.878Z,3112.00
2023-05-08T05:04:18.853Z,3188.00
2023-05-08T05:05:18.822Z,3128.00
2023-05-08T05:06:18.910Z,3168.00
2023-05-08T05:07:18.802Z,3180.00
2023-05-08T05:08:18.779Z,3120.00
2023-05-08T05:09:18.768Z,3068.00
2023-05-08T05:10:18.776Z,3164.00
2023-05-08T05:11:18.747Z,3236.00
2023-05-08T05:12:18.736Z,3304.00
2023-05-08T05:13:18.749Z,3400.00
2023-05-08T05:14:18.726Z,3520.00
2023-05-08T05:15:18.700Z,3656.00
2023-05-08T05:16:18.738Z,3796.00
2023-05-08T05:17:18.684Z,3944.00
2023-05-08T05:18:18.669Z,4092.00
2023-05-08T05:19:18.673Z,4256.00
2023-05-08T05:20:18.667Z,4420.00
2023-05-08T05:21:18.635Z,4604.00
2023-05-08T05:22:18.673Z,4800.00
2023-05-08T05:23:18.617Z,5016.00
2023-05-08T05:24:18.601Z,5244.00
2023-05-08T05:25:18.613Z,5488.00
2023-05-08T05:26:18.579Z,5732.00
2023-05-08T05:27:21.202Z,5976.00
2023-05-08T05:28:18.565Z,6288.00
2023-05-08T05:29:18.552Z,6716.00
2023-05-08T05:30:18.562Z,7088.00
2023-05-08T05:31:18.630Z,7312.00
2023-05-08T05:32:18.517Z,7476.00
2023-05-08T05:33:18.512Z,7600.00
2023-05-08T05:34:18.494Z,7956.00
2023-05-08T05:35:18.503Z,8260.00
2023-05-08T05:36:18.471Z,8188.00
2023-05-08T05:37:18.459Z,8292.00
2023-05-08T05:38:18.492Z,8292.00
2023-05-08T05:39:18.441Z,8348.00
2023-05-08T05:40:18.440Z,8292.00
2023-05-08T05:41:18.439Z,8400.00
2023-05-08T05:42:18.406Z,8416.00
2023-05-08T05:43:18.408Z,8300.00
2023-05-08T05:44:18.390Z,8204.00
2023-05-08T05:45:18.380Z,8048.00
2023-05-08T05:46:18.415Z,8044.00
2023-05-08T05:47:18.534Z,7988.00
2023-05-08T05:48:18.333Z,7908.00
2023-05-08T05:49:18.352Z,7880.00
2023-05-08T05:50:18.325Z,7864.00
2023-05-08T05:51:18.341Z,7840.00
2023-05-08T05:52:18.326Z,7836.00
2023-05-08T05:53:18.310Z,7812.00
2023-05-08T05:54:18.314Z,7796.00
2023-05-08T05:55:18.279Z,7780.00
2023-05-08T05:56:18.254Z,7768.00
2023-05-08T05:57:18.435Z,7852.00
2023-05-08T05:58:18.407Z,8120.00
2023-05-08T05:59:18.246Z,8132.00
2023-05-08T06:00:18.220Z,8644.00
2023-05-08T06:01:18.218Z,8340.00
2023-05-08T06:02:18.284Z,8228.00
2023-05-08T06:03:18.265Z,7964.00
2023-05-08T06:04:22.989Z,7932.00
2023-05-08T06:05:18.221Z,7944.00
2023-05-08T06:06:18.153Z,8020.00
2023-05-08T06:07:18.128Z,8124.00
2023-05-08T06:08:18.119Z,8296.00
2023-05-08T06:09:18.137Z,8508.00
2023-05-08T06:10:18.114Z,8740.00
2023-05-08T06:11:18.112Z,8944.00
2023-05-08T06:12:18.998Z,9048.00
2023-05-08T06:13:18.162Z,9064.00
2023-05-08T06:14:18.074Z,9040.00
2023-05-08T06:15:18.038Z,9032.00
2023-05-08T06:16:18.062Z,9064.00
2023-05-08T06:17:18.052Z,9120.00
2023-05-08T06:18:18.804Z,9192.00
2023-05-08T06:19:18.033Z,9296.00
2023-05-08T06:20:18.009Z,9444.00
2023-05-08T06:21:17.970Z,9632.00
2023-05-08T06:22:18.061Z,9804.00
2023-05-08T06:23:18.025Z,9956.00
2023-05-08T06:24:18.204Z,10132.00
2023-05-08T06:25:17.933Z,10288.00
2023-05-08T06:26:17.952Z,10376.00
2023-05-08T06:27:17.913Z,10456.00
2023-05-08T06:28:17.932Z,10544.00
2023-05-08T06:29:17.887Z,10744.00
2023-05-08T06:30:17.870Z,10796.00
2023-05-08T06:31:17.924Z,10948.00
2023-05-08T06:32:17.867Z,10936.00
2023-05-08T06:33:17.846Z,10776.00
2023-05-08T06:34:17.857Z,10716.00
2023-05-08T06:35:17.834Z,10732.00
2023-05-08T06:36:17.852Z,10760.00
2023-05-08T06:37:17.830Z,10788.00
2023-05-08T06:38:17.837Z,10756.00
2023-05-08T06:39:17.781Z,10720.00
2023-05-08T06:40:17.787Z,10652.00
2023-05-08T06:41:17.754Z,10552.00
2023-05-08T06:42:17.779Z,10496.00
2023-05-08T06:43:17.740Z,10448.00
2023-05-08T06:44:17.783Z,10348.00
2023-05-08T06:45:25.219Z,10248.00
2023-05-08T06:46:17.781Z,10176.00
2023-05-08T06:47:17.692Z,10116.00
2023-05-08T06:48:17.684Z,10072.00
2023-05-08T06:49:17.675Z,10072.00
2023-05-08T06:50:17.686Z,10028.00
2023-05-08T06:51:17.648Z,9996.00
2023-05-08T06:52:17.631Z,10004.00
2023-05-08T06:53:17.645Z,10020.00
2023-05-08T06:54:17.616Z,10068.00
2023-05-08T06:55:17.610Z,10212.00
2023-05-08T06:56:17.619Z,10348.00
2023-05-08T06:57:17.609Z,10524.00
2023-05-08T06:58:17.708Z,10688.00
2023-05-08T06:59:17.591Z,10904.00
2023-05-08T07:00:17.564Z,11312.00
2023-05-08T07:01:17.647Z,11980.00
2023-05-08T07:02:17.521Z,11808.00
2023-05-08T07:03:17.532Z,11904.00
2023-05-08T07:04:17.533Z,11540.00
2023-05-08T07:05:18.089Z,11368.00
2023-05-08T07:06:17.489Z,11420.00
2023-05-08T07:07:17.679Z,11512.00
2023-05-08T07:08:18.438Z,11744.00
2023-05-08T07:09:17.476Z,11592.00
2023-05-08T07:10:17.453Z,11716.00
2023-05-08T07:11:17.463Z,11864.00
2023-05-08T07:12:17.503Z,12080.00
2023-05-08T07:13:17.437Z,12288.00
2023-05-08T07:14:17.862Z,12672.00
2023-05-08T07:15:25.284Z,13136.00
2023-05-08T07:16:17.450Z,13388.00
2023-05-08T07:17:17.378Z,14120.00
2023-05-08T07:18:17.389Z,14924.00
2023-05-08T07:19:17.367Z,15900.00
2023-05-08T07:20:17.376Z,15444.00
2023-05-08T07:21:17.338Z,17760.00
2023-05-08T07:22:17.367Z,17408.00
2023-05-08T07:23:17.323Z,18752.00
2023-05-08T07:24:17.313Z,22976.00
2023-05-08T07:25:17.286Z,22976.00
2023-05-08T07:26:17.276Z,23520.00
2023-05-08T07:27:17.264Z,22400.00
2023-05-08T07:28:17.579Z,23488.00
2023-05-08T07:29:17.263Z,24096.00
2023-05-08T07:30:17.255Z,24128.00
2023-05-08T07:31:17.254Z,24192.00
2023-05-08T07:32:17.207Z,24288.00
2023-05-08T07:33:17.235Z,24480.00
2023-05-08T07:34:17.194Z,24544.00
2023-05-08T07:35:17.458Z,24736.00
2023-05-08T07:36:17.199Z,24992.00
2023-05-08T07:37:17.280Z,25184.00
2023-05-08T07:38:17.152Z,24896.00
2023-05-08T07:39:17.129Z,24256.00
2023-05-08T07:40:17.182Z,24416.00
2023-05-08T07:41:17.131Z,24928.00
2023-05-08T07:42:17.085Z,23424.00
2023-05-08T07:43:17.087Z,23968.00
2023-05-08T07:44:17.059Z,26016.00
2023-05-08T07:45:17.250Z,25472.00
2023-05-08T07:46:17.146Z,25152.00
2023-05-08T07:47:17.080Z,26240.00
2023-05-08T07:48:17.091Z,26816.00
2023-05-08T07:49:17.018Z,27232.00
2023-05-08T07:50:17.004Z,26848.00
2023-05-08T07:51:17.010Z,24800.00
2023-05-08T07:52:17.009Z,24256.00
2023-05-08T07:53:16.983Z,24192.00
2023-05-08T07:54:17.838Z,27456.00
2023-05-08T07:55:16.973Z,27968.00
2023-05-08T07:56:16.932Z,27584.00
2023-05-08T07:57:16.962Z,23616.00
2023-05-08T07:58:16.934Z,21120.00
2023-05-08T07:59:16.896Z,20288.00
2023-05-08T08:00:16.897Z,20320.00
2023-05-08T08:01:16.886Z,20832.00
2023-05-08T08:02:16.977Z,21312.00
2023-05-08T08:03:16.971Z,22016.00
2023-05-08T08:04:16.896Z,23008.00
2023-05-08T08:05:17.034Z,24192.00
2023-05-08T08:06:16.818Z,22144.00
2023-05-08T08:07:16.859Z,23072.00
2023-05-08T08:08:20.774Z,22144.00
2023-05-08T08:09:16.826Z,21696.00
2023-05-08T08:10:16.792Z,21472.00
2023-05-08T08:11:16.783Z,21248.00
2023-05-08T08:12:16.757Z,21120.00
2023-05-08T08:13:16.832Z,21120.00
2023-05-08T08:14:16.738Z,21216.00
2023-05-08T08:15:16.829Z,21600.00
2023-05-08T08:16:16.804Z,21504.00
2023-05-08T08:17:16.796Z,21728.00
2023-05-08T08:18:16.893Z,22016.00
2023-05-08T08:19:16.687Z,22400.00
2023-05-08T08:20:16.692Z,22272.00
2023-05-08T08:21:16.942Z,22336.00
2023-05-08T08:22:16.718Z,22336.00
2023-05-08T08:23:16.641Z,22240.00
2023-05-08T08:24:16.638Z,22176.00
2023-05-08T08:25:16.624Z,23136.00
2023-05-08T08:26:16.603Z,22752.00
2023-05-08T08:27:16.784Z,23552.00
2023-05-08T08:28:16.588Z,24704.00
2023-05-08T08:29:16.704Z,26592.00
2023-05-08T08:30:18.187Z,24064.00
2023-05-08T08:31:16.618Z,24096.00
2023-05-08T08:32:16.547Z,24992.00
2023-05-08T08:33:18.900Z,24096.00
2023-05-08T08:34:16.654Z,25696.00
2023-05-08T08:35:17.697Z,23488.00
2023-05-08T08:36:16.504Z,22944.00
2023-05-08T08:37:16.501Z,22624.00
2023-05-08T08:38:16.562Z,22528.00
2023-05-08T08:39:16.530Z,22944.00
2023-05-08T08:40:16.455Z,25312.00
2023-05-08T08:41:16.650Z,26880.00
2023-05-08T08:42:16.473Z,26240.00
2023-05-08T08:43:16.432Z,30656.00
2023-05-08T08:44:16.411Z,29728.00
2023-05-08T08:45:16.815Z,27168.00
2023-05-08T08:46:23.929Z,27936.00
2023-05-08T08:47:16.400Z,28160.00
2023-05-08T08:48:16.384Z,26080.00
2023-05-08T08:49:16.362Z,24032.00
2023-05-08T08:50:16.474Z,24416.00
2023-05-08T08:51:16.341Z,23840.00
2023-05-08T08:52:16.341Z,21696.00
2023-05-08T08:53:16.572Z,21888.00
2023-05-08T08:54:16.446Z,21376.00
2023-05-08T08:55:16.323Z,21408.00
2023-05-08T08:56:16.286Z,22112.00
2023-05-08T08:57:16.274Z,22304.00
2023-05-08T08:58:16.337Z,22144.00
2023-05-08T08:59:16.273Z,22240.00
2023-05-08T09:00:16.242Z,22624.00
2023-05-08T09:01:16.270Z,23072.00
2023-05-08T09:02:16.405Z,23520.00
2023-05-08T09:03:16.295Z,32064.00
2023-05-08T09:04:16.376Z,27328.00
2023-05-08T09:05:16.254Z,31136.00
2023-05-08T09:06:16.323Z,32288.00
2023-05-08T09:07:16.201Z,29568.00
2023-05-08T09:08:16.153Z,29024.00
2023-05-08T09:09:16.150Z,32384.00
2023-05-08T09:10:16.141Z,32064.00
2023-05-08T09:11:16.140Z,33248.00
2023-05-08T09:12:16.149Z,32928.00
2023-05-08T09:13:17.338Z,32256.00
2023-05-08T09:14:16.124Z,31264.00
2023-05-08T09:15:16.295Z,30624.00
2023-05-08T09:16:16.158Z,29536.00
2023-05-08T09:17:16.070Z,27712.00
2023-05-08T09:18:16.054Z,25088.00
2023-05-08T09:19:16.093Z,23712.00
2023-05-08T09:20:16.224Z,22400.00
2023-05-08T09:21:16.036Z,22720.00
2023-05-08T09:22:16.046Z,22688.00
2023-05-08T09:23:16.938Z,22688.00
2023-05-08T09:24:16.075Z,23456.00
2023-05-08T09:25:16.188Z,27744.00
2023-05-08T09:26:15.976Z,29216.00
2023-05-08T09:27:15.966Z,29920.00
2023-05-08T09:28:15.944Z,28672.00
2023-05-08T09:29:15.927Z,28640.00
2023-05-08T09:30:15.922Z,28224.00
2023-05-08T09:31:15.978Z,28000.00
2023-05-08T09:32:15.921Z,28064.00
2023-05-08T09:33:15.890Z,28576.00
2023-05-08T09:34:15.896Z,28832.00
2023-05-08T09:35:16.210Z,29504.00
2023-05-08T09:36:15.897Z,29376.00
2023-05-08T09:37:15.850Z,29024.00
2023-05-08T09:38:15.955Z,28736.00
2023-05-08T09:39:15.838Z,25024.00
2023-05-08T09:40:15.814Z,26624.00
2023-05-08T09:41:16.098Z,28096.00
2023-05-08T09:42:15.808Z,28064.00
2023-05-08T09:43:15.788Z,27968.00
2023-05-08T09:44:15.786Z,28000.00
2023-05-08T09:45:15.948Z,28224.00
2023-05-08T09:46:15.837Z,24896.00
2023-05-08T09:47:15.736Z,26400.00
2023-05-08T09:48:15.761Z,28576.00
2023-05-08T09:49:15.711Z,27520.00
2023-05-08T09:50:15.817Z,27872.00
2023-05-08T09:51:15.690Z,27072.00
2023-05-08T09:52:15.766Z,27552.00
2023-05-08T09:53:15.660Z,27520.00
2023-05-08T09:54:15.785Z,27168.00
2023-05-08T09:55:15.679Z,28032.00
2023-05-08T09:56:15.652Z,27136.00
2023-05-08T09:57:15.645Z,25600.00
2023-05-08T09:58:15.631Z,24768.00
2023-05-08T09:59:15.600Z,24128.00
2023-05-08T10:00:15.980Z,27072.00
2023-05-08T10:01:15.613Z,27104.00
2023-05-08T10:02:15.578Z,24480.00
2023-05-08T10:03:15.597Z,27360.00
2023-05-08T10:04:15.596Z,25216.00
2023-05-08T10:05:15.562Z,19328.00
2023-05-08T10:06:15.536Z,19328.00
2023-05-08T10:07:15.562Z,18656.00
2023-05-08T10:08:15.543Z,23232.00
2023-05-08T10:09:15.506Z,24544.00
2023-05-08T10:10:15.621Z,28768.00
2023-05-08T10:11:15.476Z,28288.00
2023-05-08T10:12:15.464Z,28864.00
2023-05-08T10:13:15.527Z,28896.00
2023-05-08T10:14:15.451Z,28064.00
2023-05-08T10:15:15.447Z,20192.00
2023-05-08T10:16:15.485Z,28576.00
2023-05-08T10:17:15.773Z,29152.00
2023-05-08T10:18:15.406Z,29504.00
2023-05-08T10:19:15.379Z,29472.00
2023-05-08T10:20:15.668Z,29280.00
2023-05-08T10:21:15.659Z,29184.00
2023-05-08T10:22:15.354Z,29248.00
2023-05-08T10:23:15.364Z,29088.00
2023-05-08T10:24:15.335Z,27040.00
2023-05-08T10:25:15.325Z,26880.00
2023-05-08T10:26:15.455Z,28448.00
2023-05-08T10:27:15.328Z,26080.00
2023-05-08T10:28:15.292Z,24352.00
2023-05-08T10:29:15.275Z,23168.00
2023-05-08T10:30:15.614Z,27360.00
2023-05-08T10:31:15.360Z,27136.00
2023-05-08T10:32:15.263Z,27136.00
2023-05-08T10:33:15.269Z,26688.00
2023-05-08T10:34:15.241Z,26080.00
2023-05-08T10:35:15.393Z,26368.00
2023-05-08T10:36:15.201Z,26432.00
2023-05-08T10:37:15.196Z,26208.00
2023-05-08T10:38:15.181Z,26336.00
2023-05-08T10:39:15.182Z,26624.00
2023-05-08T10:40:15.459Z,27232.00
2023-05-08T10:41:15.167Z,27392.00
2023-05-08T10:42:15.615Z,27648.00
2023-05-08T10:43:15.133Z,27392.00
2023-05-08T10:44:15.232Z,27680.00
2023-05-08T10:45:15.142Z,27744.00
2023-05-08T10:46:15.200Z,28256.00
2023-05-08T10:47:23.458Z,27232.00
2023-05-08T10:48:15.135Z,28224.00
2023-05-08T10:49:16.080Z,28128.00
2023-05-08T10:50:15.380Z,28160.00
2023-05-08T10:51:15.110Z,28288.00
2023-05-08T10:52:15.048Z,28064.00
2023-05-08T10:53:15.037Z,28320.00
2023-05-08T10:54:15.272Z,28736.00
2023-05-08T10:55:15.013Z,28576.00
2023-05-08T10:56:14.998Z,27840.00
2023-05-08T10:57:14.982Z,24224.00
2023-05-08T10:58:15.025Z,22560.00
2023-05-08T10:59:14.959Z,19392.00
2023-05-08T11:00:15.252Z,19264.00
2023-05-08T11:01:15.015Z,20064.00
2023-05-08T11:02:14.986Z,20864.00
2023-05-08T11:03:29.875Z,19968.00
2023-05-08T11:04:15.093Z,20576.00
2023-05-08T11:05:14.913Z,19968.00
2023-05-08T11:06:14.917Z,19456.00
2023-05-08T11:07:14.895Z,20736.00
2023-05-08T11:08:14.859Z,20832.00
2023-05-08T11:09:14.861Z,21632.00
2023-05-08T11:10:14.986Z,21472.00
2023-05-08T11:11:14.842Z,21888.00
2023-05-08T11:12:14.831Z,20928.00
2023-05-08T11:13:14.867Z,24960.00
2023-05-08T11:14:14.831Z,25728.00
2023-05-08T11:15:14.802Z,26368.00
2023-05-08T11:16:14.812Z,26624.00
2023-05-08T11:17:14.781Z,24128.00
2023-05-08T11:18:14.816Z,25216.00
2023-05-08T11:19:14.748Z,24864.00
2023-05-08T11:20:14.953Z,23616.00
2023-05-08T11:21:14.732Z,22080.00
2023-05-08T11:22:14.732Z,21760.00
2023-05-08T11:23:14.701Z,22592.00
2023-05-08T11:24:15.463Z,22176.00
2023-05-08T11:25:14.688Z,21184.00
2023-05-08T11:26:14.682Z,21632.00
2023-05-08T11:27:14.651Z,21248.00
2023-05-08T11:28:14.672Z,21536.00
2023-05-08T11:29:14.630Z,21952.00
2023-05-08T11:30:14.901Z,22880.00
2023-05-08T11:31:14.692Z,23232.00
2023-05-08T11:32:14.631Z,22880.00
2023-05-08T11:33:14.603Z,21568.00
2023-05-08T11:34:14.575Z,20608.00
2023-05-08T11:35:14.565Z,20544.00
2023-05-08T11:36:14.553Z,20448.00
2023-05-08T11:37:14.552Z,21920.00
2023-05-08T11:38:14.532Z,21696.00
2023-05-08T11:39:14.547Z,21344.00
2023-05-08T11:40:14.738Z,21408.00
2023-05-08T11:41:14.529Z,21600.00
2023-05-08T11:42:14.492Z,21824.00
2023-05-08T11:43:14.491Z,21696.00
2023-05-08T11:44:15.119Z,21024.00
2023-05-08T11:45:14.458Z,20384.00
2023-05-08T11:46:14.468Z,19616.00
2023-05-08T11:47:14.476Z,18720.00
2023-05-08T11:48:14.452Z,18176.00
2023-05-08T11:49:14.502Z,17728.00
2023-05-08T11:50:14.733Z,17600.00
2023-05-08T11:51:14.393Z,17856.00
2023-05-08T11:52:14.396Z,17792.00
2023-05-08T11:53:14.401Z,18208.00
2023-05-08T11:54:14.385Z,17504.00
2023-05-08T11:55:14.358Z,17120.00
2023-05-08T11:56:14.361Z,17248.00
2023-05-08T11:57:14.437Z,17728.00
2023-05-08T11:58:14.338Z,18496.00
2023-05-08T11:59:14.366Z,19584.00
2023-05-08T12:00:14.655Z,20384.00
2023-05-08T12:01:15.104Z,21056.00
2023-05-08T12:02:15.076Z,22048.00
2023-05-08T12:03:14.458Z,21536.00
2023-05-08T12:04:14.406Z,20608.00
2023-05-08T12:05:14.333Z,19552.00
2023-05-08T12:06:14.238Z,19008.00
2023-05-08T12:07:14.256Z,18880.00
2023-05-08T12:08:14.229Z,19200.00
2023-05-08T12:09:14.246Z,19552.00
2023-05-08T12:10:14.684Z,19520.00
2023-05-08T12:11:14.191Z,19424.00
2023-05-08T12:12:14.193Z,19136.00
2023-05-08T12:13:14.181Z,18688.00
2023-05-08T12:14:14.159Z,18208.00
2023-05-08T12:15:14.140Z,18048.00